createdAt,value
2023-03-29T00:03:59.268Z,100581.50
2023-03-29T00:09:06.242Z,100580.56
2023-03-29T00:14:08.982Z,100588.47
2023-03-29T00:19:11.343Z,100594.47
2023-03-29T00:24:13.737Z,100608.22
2023-03-29T00:29:16.969Z,100615.00
2023-03-29T00:34:19.929Z,100604.22
2023-03-29T00:39:22.369Z,100612.69
2023-03-29T00:44:53.006Z,100618.50
2023-03-29T00:49:58.013Z,100610.69
2023-03-29T00:55:06.257Z,100614.53
2023-03-29T01:00:12.461Z,100590.81
2023-03-29T01:05:20.389Z,100601.69
2023-03-29T01:10:29.870Z,100604.59
2023-03-29T01:15:33.717Z,100593.16
2023-03-29T01:21:10.674Z,100601.56
2023-03-29T01:26:19.164Z,100581.69
2023-03-29T01:31:31.804Z,100575.84
2023-03-29T01:37:00.621Z,100590.78
2023-03-29T01:42:12.063Z,100588.19
2023-03-29T01:47:36.864Z,100583.41
2023-03-29T01:52:50.959Z,100578.25
2023-03-29T01:57:56.658Z,100581.34
2023-03-29T02:03:03.477Z,100581.69
2023-03-29T02:08:10.181Z,100577.06
2023-03-29T02:13:12.797Z,100586.38
2023-03-29T02:18:19.032Z,100581.03
2023-03-29T02:23:27.763Z,100566.75
2023-03-29T02:28:32.009Z,100565.53
2023-03-29T02:34:00.872Z,100575.03
2023-03-29T02:39:06.329Z,100581.44
2023-03-29T02:44:14.398Z,100584.28
2023-03-29T02:49:17.152Z,100582.31
2023-03-29T02:54:22.400Z,100574.97
2023-03-29T02:59:24.988Z,100557.25
2023-03-29T03:04:27.545Z,100559.91
2023-03-29T03:09:29.956Z,100560.94
2023-03-29T03:14:32.962Z,100559.16
2023-03-29T03:19:36.660Z,100562.06
2023-03-29T03:24:39.610Z,100566.03
2023-03-29T03:29:42.456Z,100552.69
2023-03-29T03:35:06.239Z,100557.44
2023-03-29T03:40:09.565Z,100547.56
2023-03-29T03:45:13.385Z,100561.03
2023-03-29T03:50:27.718Z,100540.72
2023-03-29T03:55:32.641Z,100540.63
2023-03-29T04:00:46.451Z,100539.97
2023-03-29T04:06:07.789Z,100530.94
2023-03-29T04:11:33.866Z,100529.13
2023-03-29T04:16:37.113Z,100542.78
2023-03-29T04:21:58.305Z,100544.56
2023-03-29T04:27:01.885Z,100537.34
2023-03-29T04:32:04.960Z,100535.50
2023-03-29T04:37:30.083Z,100536.03
2023-03-29T04:42:34.583Z,100530.78
2023-03-29T04:47:40.037Z,100520.25
2023-03-29T04:52:51.108Z,100537.19
2023-03-29T04:57:54.329Z,100543.91
2023-03-29T05:03:04.748Z,100541.47
2023-03-29T05:08:10.940Z,100550.00
2023-03-29T05:13:29.012Z,100551.31
2023-03-29T05:18:32.115Z,100544.25
2023-03-29T05:23:34.737Z,100535.81
2023-03-29T05:28:42.885Z,100534.28
2023-03-29T05:33:45.824Z,100526.56
2023-03-29T05:38:48.379Z,100530.81
2023-03-29T05:43:51.021Z,100521.56
2023-03-29T05:48:55.456Z,100517.22
2023-03-29T05:54:08.061Z,100522.84
2023-03-29T05:59:10.631Z,100530.34
2023-03-29T06:04:14.860Z,100527.13
2023-03-29T06:09:26.904Z,100517.00
2023-03-29T06:14:38.949Z,100501.56
2023-03-29T06:20:02.412Z,100502.03
2023-03-29T06:25:11.117Z,100499.63
2023-03-29T06:30:16.790Z,100512.00
2023-03-29T06:35:23.779Z,100503.38
2023-03-29T06:40:32.464Z,100496.00
2023-03-29T06:45:37.616Z,100502.25
2023-03-29T06:50:44.980Z,100492.53
2023-03-29T06:55:52.885Z,100499.25
2023-03-29T07:01:15.623Z,100494.34
2023-03-29T07:06:24.401Z,100503.13
2023-03-29T07:11:27.396Z,100490.72
2023-03-29T07:16:32.945Z,100497.34
2023-03-29T07:22:04.674Z,100496.94
2023-03-29T07:27:21.067Z,100492.66
2023-03-29T07:32:25.000Z,100475.88
2023-03-29T07:37:47.889Z,100488.66
2023-03-29T07:42:55.625Z,100486.00
2023-03-29T07:48:00.143Z,100471.19
2023-03-29T07:53:10.661Z,100472.25
2023-03-29T07:58:14.956Z,100466.34
2023-03-29T08:03:18.314Z,100463.91
2023-03-29T08:08:20.892Z,100458.91
2023-03-29T08:13:32.991Z,100455.88
2023-03-29T08:18:54.042Z,100459.69
2023-03-29T08:23:59.450Z,100456.97
2023-03-29T08:29:23.757Z,100456.56
2023-03-29T08:34:26.516Z,100445.66
2023-03-29T08:39:58.366Z,100447.44
2023-03-29T08:45:21.443Z,100429.84
2023-03-29T08:50:48.831Z,100426.88
2023-03-29T08:55:56.398Z,100418.22
2023-03-29T09:01:35.714Z,100406.88
2023-03-29T09:06:42.370Z,100410.19
2023-03-29T09:12:48.692Z,100396.72
2023-03-29T09:17:57.230Z,100400.19
2023-03-29T09:23:23.757Z,100392.66
2023-03-29T09:29:52.151Z,100397.34
2023-03-29T09:35:14.541Z,100382.97
2023-03-29T09:40:40.147Z,100382.25
2023-03-29T09:45:53.819Z,100377.34
2023-03-29T09:50:57.527Z,100374.94
2023-03-29T09:56:02.374Z,100370.75
2023-03-29T10:01:22.354Z,100358.56
2023-03-29T10:06:27.141Z,100362.59
2023-03-29T10:11:37.248Z,100380.47
2023-03-29T10:16:42.700Z,100384.94
2023-03-29T10:21:49.349Z,100381.50
2023-03-29T10:26:56.118Z,100391.34
2023-03-29T10:31:58.820Z,100383.00
2023-03-29T10:37:02.470Z,100378.06
2023-03-29T10:42:05.320Z,100377.16
2023-03-29T10:47:16.531Z,100380.66
2023-03-29T10:52:19.219Z,100372.91
2023-03-29T10:57:41.033Z,100361.88
2023-03-29T11:02:49.672Z,100361.84
2023-03-29T11:08:01.952Z,100357.41
2023-03-29T11:13:21.610Z,100348.44
2023-03-29T11:18:39.058Z,100351.00
2023-03-29T11:23:57.175Z,100348.94
2023-03-29T11:29:29.666Z,100352.63
2023-03-29T11:35:27.414Z,100360.34
2023-03-29T11:40:37.693Z,100348.16
2023-03-29T11:45:46.468Z,100353.81
2023-03-29T11:51:03.588Z,100350.59
2023-03-29T11:56:16.895Z,100345.22
2023-03-29T12:01:32.067Z,100352.56
2023-03-29T12:06:48.347Z,100350.97
2023-03-29T12:12:03.745Z,100339.06
2023-03-29T12:17:13.160Z,100335.50
2023-03-29T12:22:15.770Z,100327.56
2023-03-29T12:28:12.552Z,100317.75
2023-03-29T12:33:51.166Z,100316.84
2023-03-29T12:39:20.164Z,100307.53
2023-03-29T12:44:49.398Z,100311.88
2023-03-29T12:50:00.605Z,100299.59
2023-03-29T12:55:18.090Z,100304.31
2023-03-29T13:00:28.028Z,100293.38
2023-03-29T13:05:39.644Z,100312.16
2023-03-29T13:10:43.107Z,100307.06
2023-03-29T13:15:46.426Z,100311.94
2023-03-29T13:20:57.723Z,100309.94
2023-03-29T13:26:28.320Z,100322.53
2023-03-29T13:31:44.490Z,100322.53
2023-03-29T13:37:08.739Z,100322.91
2023-03-29T13:42:36.617Z,100335.03
2023-03-29T13:47:54.962Z,100345.97
2023-03-29T13:53:21.265Z,100344.75
2023-03-29T13:58:38.325Z,100344.72
2023-03-29T14:03:47.398Z,100346.06
2023-03-29T14:08:52.009Z,100357.81
2023-03-29T14:13:59.724Z,100350.47
2023-03-29T14:19:13.772Z,100349.66
2023-03-29T14:24:21.831Z,100349.25
2023-03-29T14:29:30.528Z,100353.44
2023-03-29T14:34:32.986Z,100353.84
2023-03-29T14:39:36.087Z,100362.53
2023-03-29T14:44:38.853Z,100365.72
2023-03-29T14:49:41.298Z,100379.47
2023-03-29T14:54:47.960Z,100378.13
2023-03-29T15:00:02.707Z,100363.59
2023-03-29T15:05:07.959Z,100370.19
2023-03-29T15:10:17.686Z,100378.47
2023-03-29T15:15:21.151Z,100375.09
2023-03-29T15:20:29.353Z,100366.38
2023-03-29T15:25:46.500Z,100377.47
2023-03-29T15:31:00.728Z,100371.03
2023-03-29T15:36:12.405Z,100371.19
2023-03-29T15:41:15.717Z,100366.38
2023-03-29T15:46:18.115Z,100356.09
2023-03-29T15:51:20.495Z,100349.03
2023-03-29T15:56:23.196Z,100363.63
2023-03-29T16:01:35.953Z,100368.06
2023-03-29T16:06:38.987Z,100372.78
2023-03-29T16:11:43.330Z,100360.44
2023-03-29T16:16:45.574Z,100366.47
2023-03-29T16:21:48.682Z,100369.09
2023-03-29T16:26:54.757Z,100366.47
2023-03-29T16:31:59.299Z,100359.84
2023-03-29T16:37:01.875Z,100381.97
2023-03-29T16:42:04.790Z,100386.19
2023-03-29T16:47:07.246Z,100388.06
2023-03-29T16:52:09.608Z,100394.19
2023-03-29T16:57:12.508Z,100401.66
2023-03-29T17:02:14.925Z,100408.91
2023-03-29T17:07:17.449Z,100410.44
2023-03-29T17:12:21.458Z,100401.34
2023-03-29T17:17:34.985Z,100389.06
2023-03-29T17:22:40.151Z,100376.19
2023-03-29T17:27:42.670Z,100364.53
2023-03-29T17:32:47.802Z,100368.84
2023-03-29T17:37:50.261Z,100347.44
2023-03-29T17:42:52.986Z,100336.22
2023-03-29T17:47:55.858Z,100346.97
2023-03-29T17:52:58.283Z,100356.78
2023-03-29T17:58:01.063Z,100353.03
2023-03-29T18:03:04.317Z,100346.50
2023-03-29T18:08:06.923Z,100337.94
2023-03-29T18:13:14.077Z,100341.13
2023-03-29T18:18:16.398Z,100333.84
2023-03-29T18:23:18.905Z,100326.41
2023-03-29T18:28:21.749Z,100317.53
2023-03-29T18:33:24.948Z,100305.97
2023-03-29T18:38:27.400Z,100304.69
2023-03-29T18:43:31.228Z,100310.38
2023-03-29T18:48:39.157Z,100310.72
2023-03-29T18:53:43.269Z,100307.66
2023-03-29T18:58:46.611Z,100306.50
2023-03-29T19:03:49.362Z,100295.50
2023-03-29T19:08:54.237Z,100297.03
2023-03-29T19:13:56.907Z,100282.88
2023-03-29T19:19:00.359Z,100274.25
2023-03-29T19:24:05.306Z,100279.03
2023-03-29T19:29:07.850Z,100286.97
2023-03-29T19:34:11.317Z,100281.09
2023-03-29T19:39:13.937Z,100265.56
2023-03-29T19:44:16.324Z,100269.31
2023-03-29T19:49:19.105Z,100263.25
2023-03-29T19:54:22.092Z,100272.00
2023-03-29T19:59:25.518Z,100263.25
2023-03-29T20:04:29.010Z,100266.75
2023-03-29T20:09:35.512Z,100266.19
2023-03-29T20:14:40.360Z,100260.81
2023-03-29T20:19:44.388Z,100256.97
2023-03-29T20:24:46.780Z,100260.25
2023-03-29T20:29:49.271Z,100264.47
2023-03-29T20:34:51.706Z,100264.56
2023-03-29T20:39:56.945Z,100268.66
2023-03-29T20:45:00.435Z,100271.34
2023-03-29T20:50:04.368Z,100266.53
2023-03-29T20:55:06.953Z,100263.28
2023-03-29T21:00:12.467Z,100263.84
2023-03-29T21:05:15.972Z,100253.78
2023-03-29T21:10:18.506Z,100257.88
2023-03-29T21:15:21.584Z,100246.66
2023-03-29T21:20:24.522Z,100248.50
2023-03-29T21:25:26.994Z,100248.97
2023-03-29T21:30:31.863Z,100251.88
2023-03-29T21:35:35.960Z,100248.50
2023-03-29T21:40:39.214Z,100256.56
2023-03-29T21:45:41.614Z,100253.53
2023-03-29T21:50:44.683Z,100246.97
2023-03-29T21:55:50.921Z,100244.16
2023-03-29T22:00:56.000Z,100238.78
2023-03-29T22:06:01.660Z,100226.75
2023-03-29T22:11:08.402Z,100218.03
2023-03-29T22:16:16.958Z,100216.38
2023-03-29T22:21:25.196Z,100208.09
2023-03-29T22:26:30.817Z,100209.47
2023-03-29T22:31:33.261Z,100205.59
2023-03-29T22:36:36.361Z,100199.41
2023-03-29T22:41:38.761Z,100200.63
2023-03-29T22:46:41.532Z,100202.84
2023-03-29T22:51:43.966Z,100209.59
2023-03-29T22:56:47.033Z,100210.28
2023-03-29T23:01:50.291Z,100205.38
2023-03-29T23:06:53.526Z,100192.78
2023-03-29T23:11:55.977Z,100191.59
2023-03-29T23:16:58.501Z,100197.06
2023-03-29T23:22:01.225Z,100201.00
2023-03-29T23:27:05.092Z,100205.94
2023-03-29T23:32:07.600Z,100198.00
2023-03-29T23:37:09.916Z,100188.09
2023-03-29T23:42:12.438Z,100176.28
2023-03-29T23:47:14.791Z,100197.28
2023-03-29T23:52:17.726Z,100190.19
2023-03-29T23:57:21.596Z,100185.06
